sensor_id;sensor_type;location;lat;lon;timestamp;P1;durP1;ratioP1;P2;durP2;ratioP2
46391;SDS011;32098;49.448;7.904;2022-10-16T00:01:19;3.30;;;0.40;;
46391;SDS011;32098;49.448;7.904;2022-10-16T00:03:48;0.45;;;0.35;;
46391;SDS011;32098;49.448;7.904;2022-10-16T00:06:16;1.05;;;0.73;;
46391;SDS011;32098;49.448;7.904;2022-10-16T00:08:44;1.20;;;0.40;;
46391;SDS011;32098;49.448;7.904;2022-10-16T00:11:13;3.03;;;0.40;;
46391;SDS011;32098;49.448;7.904;2022-10-16T00:13:54;2.22;;;0.40;;
46391;SDS011;32098;49.448;7.904;2022-10-16T00:16:24;1.05;;;0.30;;
46391;SDS011;32098;49.448;7.904;2022-10-16T00:18:51;2.05;;;0.40;;
46391;SDS011;32098;49.448;7.904;2022-10-16T00:21:20;2.75;;;0.40;;
46391;SDS011;32098;49.448;7.904;2022-10-16T00:23:54;2.05;;;0.40;;
46391;SDS011;32098;49.448;7.904;2022-10-16T00:26:26;1.13;;;0.32;;
46391;SDS011;32098;49.448;7.904;2022-10-16T00:28:54;1.90;;;0.30;;
46391;SDS011;32098;49.448;7.904;2022-10-16T00:31:21;0.40;;;0.40;;
46391;SDS011;32098;49.448;7.904;2022-10-16T00:33:49;2.90;;;0.50;;
46391;SDS011;32098;49.448;7.904;2022-10-16T00:36:18;0.30;;;0.30;;
46391;SDS011;32098;49.448;7.904;2022-10-16T00:38:46;2.20;;;0.50;;
46391;SDS011;32098;49.448;7.904;2022-10-16T00:41:14;1.35;;;0.50;;
46391;SDS011;32098;49.448;7.904;2022-10-16T00:43:46;1.73;;;1.00;;
46391;SDS011;32098;49.448;7.904;2022-10-16T00:46:17;1.17;;;0.63;;
46391;SDS011;32098;49.448;7.904;2022-10-16T00:49:01;4.20;;;1.05;;
46391;SDS011;32098;49.448;7.904;2022-10-16T00:51:43;3.40;;;0.60;;
46391;SDS011;32098;49.448;7.904;2022-10-16T00:54:26;1.95;;;0.50;;
46391;SDS011;32098;49.448;7.904;2022-10-16T00:56:56;3.83;;;1.27;;
46391;SDS011;32098;49.448;7.904;2022-10-16T00:59:27;1.42;;;1.13;;
46391;SDS011;32098;49.448;7.904;2022-10-16T01:01:56;2.53;;;0.60;;
46391;SDS011;32098;49.448;7.904;2022-10-16T01:04:24;2.10;;;0.98;;
46391;SDS011;32098;49.448;7.904;2022-10-16T01:06:56;1.15;;;0.90;;
46391;SDS011;32098;49.448;7.904;2022-10-16T01:17:36;3.67;;;3.15;;
46391;SDS011;32098;49.448;7.904;2022-10-16T01:20:26;2.97;;;2.78;;
46391;SDS011;32098;49.448;7.904;2022-10-16T01:26:10;3.00;;;2.00;;
46391;SDS011;32098;49.448;7.904;2022-10-16T01:31:18;2.63;;;1.45;;
46391;SDS011;32098;49.448;7.904;2022-10-16T01:34:10;3.00;;;1.48;;
46391;SDS011;32098;49.448;7.904;2022-10-16T01:36:47;1.33;;;1.23;;
46391;SDS011;32098;49.448;7.904;2022-10-16T01:39:20;1.77;;;1.50;;
46391;SDS011;32098;49.448;7.904;2022-10-16T01:41:53;4.47;;;1.70;;
46391;SDS011;32098;49.448;7.904;2022-10-16T01:44:25;1.77;;;1.27;;
46391;SDS011;32098;49.448;7.904;2022-10-16T01:46:57;4.10;;;1.50;;
46391;SDS011;32098;49.448;7.904;2022-10-16T01:49:26;2.75;;;1.77;;
46391;SDS011;32098;49.448;7.904;2022-10-16T01:52:00;3.13;;;1.50;;
46391;SDS011;32098;49.448;7.904;2022-10-16T01:54:31;1.42;;;1.33;;
46391;SDS011;32098;49.448;7.904;2022-10-16T01:57:01;1.02;;;0.70;;
46391;SDS011;32098;49.448;7.904;2022-10-16T01:59:30;0.90;;;0.40;;
46391;SDS011;32098;49.448;7.904;2022-10-16T02:02:04;2.90;;;1.15;;
46391;SDS011;32098;49.448;7.904;2022-10-16T02:04:36;1.52;;;0.80;;
46391;SDS011;32098;49.448;7.904;2022-10-16T02:07:10;0.65;;;0.50;;
46391;SDS011;32098;49.448;7.904;2022-10-16T02:09:37;1.17;;;0.80;;
46391;SDS011;32098;49.448;7.904;2022-10-16T02:12:07;2.42;;;1.77;;
46391;SDS011;32098;49.448;7.904;2022-10-16T02:14:38;4.53;;;3.42;;
46391;SDS011;32098;49.448;7.904;2022-10-16T02:17:13;4.25;;;2.67;;
46391;SDS011;32098;49.448;7.904;2022-10-16T02:19:42;3.85;;;1.98;;
46391;SDS011;32098;49.448;7.904;2022-10-16T02:22:11;1.75;;;1.63;;
46391;SDS011;32098;49.448;7.904;2022-10-16T02:25:03;1.13;;;1.02;;
46391;SDS011;32098;49.448;7.904;2022-10-16T02:27:36;2.63;;;0.98;;
46391;SDS011;32098;49.448;7.904;2022-10-16T02:30:10;2.97;;;1.40;;
46391;SDS011;32098;49.448;7.904;2022-10-16T02:32:45;2.70;;;1.02;;
46391;SDS011;32098;49.448;7.904;2022-10-16T02:35:15;2.92;;;0.90;;
46391;SDS011;32098;49.448;7.904;2022-10-16T02:37:44;1.15;;;0.77;;
46391;SDS011;32098;49.448;7.904;2022-10-16T02:40:13;1.00;;;0.90;;
46391;SDS011;32098;49.448;7.904;2022-10-16T02:42:49;2.10;;;0.95;;
46391;SDS011;32098;49.448;7.904;2022-10-16T02:45:19;1.65;;;0.70;;
46391;SDS011;32098;49.448;7.904;2022-10-16T02:47:48;0.70;;;0.70;;
46391;SDS011;32098;49.448;7.904;2022-10-16T02:50:16;0.75;;;0.70;;
46391;SDS011;32098;49.448;7.904;2022-10-16T02:52:43;2.45;;;0.73;;
46391;SDS011;32098;49.448;7.904;2022-10-16T02:55:09;4.07;;;1.38;;
46391;SDS011;32098;49.448;7.904;2022-10-16T02:57:37;3.92;;;2.95;;
46391;SDS011;32098;49.448;7.904;2022-10-16T03:00:05;5.05;;;4.28;;
46391;SDS011;32098;49.448;7.904;2022-10-16T03:02:35;4.45;;;3.40;;
46391;SDS011;32098;49.448;7.904;2022-10-16T03:05:02;2.83;;;2.25;;
46391;SDS011;32098;49.448;7.904;2022-10-16T03:07:29;1.63;;;1.52;;
46391;SDS011;32098;49.448;7.904;2022-10-16T03:09:56;1.60;;;1.50;;
46391;SDS011;32098;49.448;7.904;2022-10-16T03:12:22;3.35;;;1.20;;
46391;SDS011;32098;49.448;7.904;2022-10-16T03:14:49;3.85;;;1.00;;
46391;SDS011;32098;49.448;7.904;2022-10-16T03:17:16;3.40;;;0.77;;
46391;SDS011;32098;49.448;7.904;2022-10-16T03:19:43;2.08;;;0.60;;
46391;SDS011;32098;49.448;7.904;2022-10-16T03:22:10;1.58;;;0.70;;
46391;SDS011;32098;49.448;7.904;2022-10-16T03:24:37;0.98;;;0.70;;
46391;SDS011;32098;49.448;7.904;2022-10-16T03:27:04;1.15;;;0.52;;
46391;SDS011;32098;49.448;7.904;2022-10-16T03:29:30;0.63;;;0.50;;
46391;SDS011;32098;49.448;7.904;2022-10-16T03:31:58;0.93;;;0.40;;
46391;SDS011;32098;49.448;7.904;2022-10-16T03:34:25;1.15;;;0.30;;
46391;SDS011;32098;49.448;7.904;2022-10-16T03:36:52;2.40;;;0.32;;
46391;SDS011;32098;49.448;7.904;2022-10-16T03:39:19;1.55;;;0.25;;
46391;SDS011;32098;49.448;7.904;2022-10-16T03:41:46;1.90;;;0.43;;
46391;SDS011;32098;49.448;7.904;2022-10-16T03:44:13;1.23;;;0.20;;
46391;SDS011;32098;49.448;7.904;2022-10-16T03:46:40;1.55;;;0.50;;
46391;SDS011;32098;49.448;7.904;2022-10-16T03:49:07;1.60;;;0.25;;
46391;SDS011;32098;49.448;7.904;2022-10-16T03:51:35;0.75;;;0.40;;
46391;SDS011;32098;49.448;7.904;2022-10-16T03:54:02;2.55;;;2.10;;
46391;SDS011;32098;49.448;7.904;2022-10-16T03:56:28;2.40;;;1.00;;
46391;SDS011;32098;49.448;7.904;2022-10-16T03:58:55;1.33;;;0.80;;
46391;SDS011;32098;49.448;7.904;2022-10-16T04:01:21;2.40;;;1.50;;
46391;SDS011;32098;49.448;7.904;2022-10-16T04:03:48;4.47;;;3.80;;
46391;SDS011;32098;49.448;7.904;2022-10-16T04:06:15;6.10;;;2.90;;
46391;SDS011;32098;49.448;7.904;2022-10-16T04:08:42;3.75;;;1.50;;
46391;SDS011;32098;49.448;7.904;2022-10-16T04:11:10;1.63;;;1.02;;
46391;SDS011;32098;49.448;7.904;2022-10-16T04:13:36;2.03;;;1.83;;
46391;SDS011;32098;49.448;7.904;2022-10-16T04:16:03;2.90;;;1.40;;
46391;SDS011;32098;49.448;7.904;2022-10-16T04:18:30;3.53;;;1.67;;
46391;SDS011;32098;49.448;7.904;2022-10-16T04:21:02;4.35;;;1.02;;
46391;SDS011;32098;49.448;7.904;2022-10-16T04:23:30;4.47;;;1.33;;
46391;SDS011;32098;49.448;7.904;2022-10-16T04:25:58;3.08;;;1.05;;
46391;SDS011;32098;49.448;7.904;2022-10-16T04:28:26;2.53;;;1.35;;
46391;SDS011;32098;49.448;7.904;2022-10-16T04:30:53;1.90;;;0.90;;
46391;SDS011;32098;49.448;7.904;2022-10-16T04:33:20;4.20;;;1.00;;
46391;SDS011;32098;49.448;7.904;2022-10-16T04:35:46;4.22;;;0.80;;
46391;SDS011;32098;49.448;7.904;2022-10-16T04:38:14;3.33;;;1.13;;
46391;SDS011;32098;49.448;7.904;2022-10-16T04:40:41;8.43;;;2.80;;
46391;SDS011;32098;49.448;7.904;2022-10-16T04:43:09;2.20;;;1.65;;
46391;SDS011;32098;49.448;7.904;2022-10-16T04:45:35;3.63;;;1.13;;
46391;SDS011;32098;49.448;7.904;2022-10-16T04:48:02;57.95;;;2.30;;
46391;SDS011;32098;49.448;7.904;2022-10-16T04:50:29;8.77;;;1.13;;
46391;SDS011;32098;49.448;7.904;2022-10-16T04:53:05;6.20;;;1.52;;
46391;SDS011;32098;49.448;7.904;2022-10-16T04:55:33;18.50;;;1.52;;
46391;SDS011;32098;49.448;7.904;2022-10-16T04:57:59;5.25;;;1.75;;
46391;SDS011;32098;49.448;7.904;2022-10-16T05:00:26;3.40;;;1.70;;
46391;SDS011;32098;49.448;7.904;2022-10-16T05:02:54;3.20;;;1.10;;
46391;SDS011;32098;49.448;7.904;2022-10-16T05:05:21;1.02;;;0.98;;
46391;SDS011;32098;49.448;7.904;2022-10-16T05:07:47;1.00;;;0.98;;
46391;SDS011;32098;49.448;7.904;2022-10-16T05:10:15;1.15;;;0.90;;
46391;SDS011;32098;49.448;7.904;2022-10-16T05:12:42;28.77;;;15.75;;
46391;SDS011;32098;49.448;7.904;2022-10-16T05:15:09;20.35;;;11.57;;
46391;SDS011;32098;49.448;7.904;2022-10-16T05:17:36;11.27;;;7.18;;
46391;SDS011;32098;49.448;7.904;2022-10-16T05:20:10;14.85;;;6.43;;
46391;SDS011;32098;49.448;7.904;2022-10-16T05:22:37;10.05;;;5.22;;
46391;SDS011;32098;49.448;7.904;2022-10-16T05:25:05;8.88;;;4.28;;
46391;SDS011;32098;49.448;7.904;2022-10-16T05:27:32;10.50;;;5.25;;
46391;SDS011;32098;49.448;7.904;2022-10-16T05:29:59;4.32;;;3.10;;
46391;SDS011;32098;49.448;7.904;2022-10-16T05:32:26;8.85;;;4.45;;
46391;SDS011;32098;49.448;7.904;2022-10-16T05:34:54;8.20;;;5.45;;
46391;SDS011;32098;49.448;7.904;2022-10-16T05:37:21;11.98;;;6.70;;
46391;SDS011;32098;49.448;7.904;2022-10-16T05:39:48;9.57;;;5.72;;
46391;SDS011;32098;49.448;7.904;2022-10-16T05:42:14;5.93;;;3.95;;
46391;SDS011;32098;49.448;7.904;2022-10-16T05:44:41;5.30;;;3.38;;
46391;SDS011;32098;49.448;7.904;2022-10-16T05:47:09;3.38;;;2.80;;
46391;SDS011;32098;49.448;7.904;2022-10-16T05:49:37;6.95;;;3.45;;
46391;SDS011;32098;49.448;7.904;2022-10-16T05:52:09;7.03;;;3.33;;
46391;SDS011;32098;49.448;7.904;2022-10-16T05:54:36;8.48;;;4.38;;
46391;SDS011;32098;49.448;7.904;2022-10-16T05:57:03;7.25;;;4.57;;
46391;SDS011;32098;49.448;7.904;2022-10-16T05:59:31;10.35;;;6.07;;
46391;SDS011;32098;49.448;7.904;2022-10-16T06:01:59;10.07;;;5.75;;
46391;SDS011;32098;49.448;7.904;2022-10-16T06:04:26;7.72;;;6.03;;
46391;SDS011;32098;49.448;7.904;2022-10-16T06:06:54;8.95;;;6.40;;
46391;SDS011;32098;49.448;7.904;2022-10-16T06:09:26;8.30;;;5.68;;
46391;SDS011;32098;49.448;7.904;2022-10-16T06:11:53;7.05;;;4.95;;
46391;SDS011;32098;49.448;7.904;2022-10-16T06:14:19;8.35;;;5.65;;
46391;SDS011;32098;49.448;7.904;2022-10-16T06:16:46;7.80;;;5.72;;
46391;SDS011;32098;49.448;7.904;2022-10-16T06:19:13;7.25;;;5.10;;
46391;SDS011;32098;49.448;7.904;2022-10-16T06:21:39;11.07;;;5.25;;
46391;SDS011;32098;49.448;7.904;2022-10-16T06:24:06;8.38;;;5.60;;
46391;SDS011;32098;49.448;7.904;2022-10-16T06:26:33;6.97;;;5.07;;
46391;SDS011;32098;49.448;7.904;2022-10-16T06:29:00;5.38;;;3.70;;
46391;SDS011;32098;49.448;7.904;2022-10-16T06:31:28;5.72;;;3.72;;
46391;SDS011;32098;49.448;7.904;2022-10-16T06:33:57;4.85;;;4.20;;
46391;SDS011;32098;49.448;7.904;2022-10-16T06:36:24;6.75;;;3.90;;
46391;SDS011;32098;49.448;7.904;2022-10-16T06:38:52;7.00;;;4.50;;
46391;SDS011;32098;49.448;7.904;2022-10-16T06:41:20;7.78;;;4.90;;
46391;SDS011;32098;49.448;7.904;2022-10-16T06:43:48;9.15;;;3.95;;
46391;SDS011;32098;49.448;7.904;2022-10-16T06:46:16;11.85;;;3.95;;
46391;SDS011;32098;49.448;7.904;2022-10-16T06:48:45;5.93;;;3.38;;
46391;SDS011;32098;49.448;7.904;2022-10-16T06:51:13;4.80;;;2.90;;
46391;SDS011;32098;49.448;7.904;2022-10-16T06:53:51;4.40;;;2.35;;
46391;SDS011;32098;49.448;7.904;2022-10-16T06:56:29;5.05;;;2.90;;
46391;SDS011;32098;49.448;7.904;2022-10-16T06:58:57;5.78;;;3.10;;
46391;SDS011;32098;49.448;7.904;2022-10-16T07:01:25;3.83;;;3.38;;
46391;SDS011;32098;49.448;7.904;2022-10-16T07:03:52;4.60;;;3.45;;
46391;SDS011;32098;49.448;7.904;2022-10-16T07:06:22;4.78;;;2.90;;
46391;SDS011;32098;49.448;7.904;2022-10-16T07:08:50;3.28;;;2.97;;
46391;SDS011;32098;49.448;7.904;2022-10-16T07:11:18;6.55;;;2.60;;
46391;SDS011;32098;49.448;7.904;2022-10-16T07:13:51;4.68;;;2.90;;
46391;SDS011;32098;49.448;7.904;2022-10-16T07:16:22;5.10;;;2.05;;
46391;SDS011;32098;49.448;7.904;2022-10-16T07:18:51;4.93;;;3.00;;
46391;SDS011;32098;49.448;7.904;2022-10-16T07:21:25;7.00;;;3.13;;
46391;SDS011;32098;49.448;7.904;2022-10-16T07:23:53;4.38;;;3.00;;
46391;SDS011;32098;49.448;7.904;2022-10-16T07:26:23;2.35;;;2.13;;
46391;SDS011;32098;49.448;7.904;2022-10-16T07:28:50;4.80;;;2.60;;
46391;SDS011;32098;49.448;7.904;2022-10-16T07:31:18;4.40;;;2.78;;
46391;SDS011;32098;49.448;7.904;2022-10-16T07:33:46;4.93;;;1.85;;
46391;SDS011;32098;49.448;7.904;2022-10-16T07:36:15;3.25;;;2.15;;
46391;SDS011;32098;49.448;7.904;2022-10-16T07:38:42;4.35;;;2.40;;
46391;SDS011;32098;49.448;7.904;2022-10-16T07:41:12;4.80;;;2.78;;
46391;SDS011;32098;49.448;7.904;2022-10-16T07:43:45;5.68;;;2.85;;
46391;SDS011;32098;49.448;7.904;2022-10-16T07:46:16;3.05;;;2.25;;
46391;SDS011;32098;49.448;7.904;2022-10-16T07:48:44;5.10;;;2.72;;
46391;SDS011;32098;49.448;7.904;2022-10-16T07:51:14;5.28;;;2.67;;
46391;SDS011;32098;49.448;7.904;2022-10-16T07:53:42;3.42;;;2.20;;
46391;SDS011;32098;49.448;7.904;2022-10-16T07:56:09;3.15;;;2.22;;
46391;SDS011;32098;49.448;7.904;2022-10-16T07:58:36;5.10;;;3.00;;
46391;SDS011;32098;49.448;7.904;2022-10-16T08:01:06;2.90;;;2.20;;
46391;SDS011;32098;49.448;7.904;2022-10-16T08:03:35;6.88;;;3.15;;
46391;SDS011;32098;49.448;7.904;2022-10-16T08:06:02;7.63;;;3.65;;
46391;SDS011;32098;49.448;7.904;2022-10-16T08:08:30;16.02;;;3.42;;
46391;SDS011;32098;49.448;7.904;2022-10-16T08:10:57;6.47;;;2.50;;
46391;SDS011;32098;49.448;7.904;2022-10-16T08:13:23;3.53;;;2.20;;
46391;SDS011;32098;49.448;7.904;2022-10-16T08:15:50;3.65;;;2.03;;
46391;SDS011;32098;49.448;7.904;2022-10-16T08:18:17;2.53;;;1.65;;
46391;SDS011;32098;49.448;7.904;2022-10-16T08:20:44;1.80;;;1.50;;
46391;SDS011;32098;49.448;7.904;2022-10-16T08:23:11;2.58;;;2.00;;
46391;SDS011;32098;49.448;7.904;2022-10-16T08:25:40;2.17;;;1.98;;
46391;SDS011;32098;49.448;7.904;2022-10-16T08:28:08;3.17;;;2.30;;
46391;SDS011;32098;49.448;7.904;2022-10-16T08:30:36;3.50;;;2.45;;
46391;SDS011;32098;49.448;7.904;2022-10-16T08:33:03;4.13;;;2.28;;
46391;SDS011;32098;49.448;7.904;2022-10-16T08:35:30;3.20;;;2.47;;
46391;SDS011;32098;49.448;7.904;2022-10-16T08:37:57;4.03;;;2.85;;
46391;SDS011;32098;49.448;7.904;2022-10-16T08:40:28;4.57;;;2.47;;
46391;SDS011;32098;49.448;7.904;2022-10-16T08:45:51;5.13;;;2.80;;
46391;SDS011;32098;49.448;7.904;2022-10-16T08:48:35;4.55;;;3.42;;
46391;SDS011;32098;49.448;7.904;2022-10-16T08:51:05;3.60;;;2.67;;
46391;SDS011;32098;49.448;7.904;2022-10-16T08:53:43;5.65;;;3.78;;
46391;SDS011;32098;49.448;7.904;2022-10-16T08:56:15;13.07;;;7.97;;
46391;SDS011;32098;49.448;7.904;2022-10-16T08:58:45;6.63;;;5.78;;
46391;SDS011;32098;49.448;7.904;2022-10-16T09:01:15;6.15;;;4.20;;
46391;SDS011;32098;49.448;7.904;2022-10-16T09:06:48;17.30;;;12.43;;
46391;SDS011;32098;49.448;7.904;2022-10-16T09:12:18;5.55;;;4.53;;
46391;SDS011;32098;49.448;7.904;2022-10-16T09:23:28;3.85;;;3.28;;
46391;SDS011;32098;49.448;7.904;2022-10-16T09:25:56;4.00;;;3.00;;
46391;SDS011;32098;49.448;7.904;2022-10-16T09:28:25;7.75;;;3.20;;
46391;SDS011;32098;49.448;7.904;2022-10-16T09:30:53;5.20;;;3.33;;
46391;SDS011;32098;49.448;7.904;2022-10-16T09:33:21;6.93;;;2.80;;
46391;SDS011;32098;49.448;7.904;2022-10-16T09:35:53;2.83;;;2.10;;
46391;SDS011;32098;49.448;7.904;2022-10-16T09:40:56;3.78;;;1.90;;
46391;SDS011;32098;49.448;7.904;2022-10-16T09:43:36;3.85;;;2.00;;
46391;SDS011;32098;49.448;7.904;2022-10-16T09:49:21;3.53;;;2.03;;
46391;SDS011;32098;49.448;7.904;2022-10-16T09:52:03;6.50;;;2.58;;
46391;SDS011;32098;49.448;7.904;2022-10-16T09:54:37;4.25;;;2.33;;
46391;SDS011;32098;49.448;7.904;2022-10-16T09:57:05;3.33;;;2.28;;
46391;SDS011;32098;49.448;7.904;2022-10-16T09:59:33;4.03;;;2.25;;
46391;SDS011;32098;49.448;7.904;2022-10-16T10:02:03;5.50;;;2.10;;
46391;SDS011;32098;49.448;7.904;2022-10-16T10:04:42;4.90;;;2.10;;
46391;SDS011;32098;49.448;7.904;2022-10-16T10:07:18;3.92;;;2.83;;
46391;SDS011;32098;49.448;7.904;2022-10-16T10:09:47;2.95;;;2.25;;
46391;SDS011;32098;49.448;7.904;2022-10-16T10:12:17;3.60;;;2.17;;
46391;SDS011;32098;49.448;7.904;2022-10-16T10:14:52;4.90;;;2.85;;
46391;SDS011;32098;49.448;7.904;2022-10-16T10:17:25;3.08;;;2.78;;
46391;SDS011;32098;49.448;7.904;2022-10-16T10:19:54;2.85;;;2.20;;
46391;SDS011;32098;49.448;7.904;2022-10-16T10:25:12;5.38;;;1.80;;
46391;SDS011;32098;49.448;7.904;2022-10-16T10:27:55;4.47;;;1.85;;
46391;SDS011;32098;49.448;7.904;2022-10-16T10:33:12;2.45;;;1.80;;
46391;SDS011;32098;49.448;7.904;2022-10-16T10:38:37;3.70;;;2.05;;
46391;SDS011;32098;49.448;7.904;2022-10-16T10:41:24;4.22;;;2.00;;
46391;SDS011;32098;49.448;7.904;2022-10-16T10:46:48;2.33;;;1.80;;
46391;SDS011;32098;49.448;7.904;2022-10-16T10:57:29;1.83;;;1.58;;
46391;SDS011;32098;49.448;7.904;2022-10-16T11:00:06;3.45;;;1.80;;
46391;SDS011;32098;49.448;7.904;2022-10-16T11:03:00;4.00;;;2.20;;
46391;SDS011;32098;49.448;7.904;2022-10-16T11:06:04;2.85;;;1.95;;
46391;SDS011;32098;49.448;7.904;2022-10-16T11:08:39;3.03;;;2.72;;
46391;SDS011;32098;49.448;7.904;2022-10-16T11:11:20;3.25;;;2.42;;
46391;SDS011;32098;49.448;7.904;2022-10-16T11:16:30;6.10;;;2.67;;
46391;SDS011;32098;49.448;7.904;2022-10-16T11:21:51;3.85;;;2.83;;
46391;SDS011;32098;49.448;7.904;2022-10-16T11:24:35;2.92;;;2.00;;
46391;SDS011;32098;49.448;7.904;2022-10-16T11:27:08;4.43;;;2.30;;
46391;SDS011;32098;49.448;7.904;2022-10-16T11:29:46;2.53;;;1.88;;
46391;SDS011;32098;49.448;7.904;2022-10-16T11:32:32;4.20;;;2.05;;
46391;SDS011;32098;49.448;7.904;2022-10-16T11:35:15;2.50;;;2.30;;
46391;SDS011;32098;49.448;7.904;2022-10-16T11:37:48;3.85;;;2.45;;
46391;SDS011;32098;49.448;7.904;2022-10-16T11:40:19;2.95;;;1.83;;
46391;SDS011;32098;49.448;7.904;2022-10-16T11:42:55;3.15;;;1.90;;
46391;SDS011;32098;49.448;7.904;2022-10-16T11:45:39;2.47;;;2.05;;
46391;SDS011;32098;49.448;7.904;2022-10-16T11:50:53;2.08;;;1.88;;
46391;SDS011;32098;49.448;7.904;2022-10-16T11:55:54;2.15;;;1.73;;
46391;SDS011;32098;49.448;7.904;2022-10-16T11:58:29;2.67;;;2.17;;
46391;SDS011;32098;49.448;7.904;2022-10-16T12:09:26;3.35;;;2.10;;
46391;SDS011;32098;49.448;7.904;2022-10-16T12:11:55;1.80;;;1.70;;
46391;SDS011;32098;49.448;7.904;2022-10-16T12:17:26;1.80;;;1.70;;
46391;SDS011;32098;49.448;7.904;2022-10-16T12:20:01;2.40;;;1.70;;
46391;SDS011;32098;49.448;7.904;2022-10-16T12:23:20;1.95;;;1.75;;
46391;SDS011;32098;49.448;7.904;2022-10-16T12:25:39;3.38;;;1.80;;
46391;SDS011;32098;49.448;7.904;2022-10-16T12:30:41;2.58;;;2.17;;
46391;SDS011;32098;49.448;7.904;2022-10-16T12:35:56;3.30;;;1.90;;
46391;SDS011;32098;49.448;7.904;2022-10-16T12:40:58;2.38;;;1.80;;
46391;SDS011;32098;49.448;7.904;2022-10-16T12:43:35;3.58;;;1.60;;
46391;SDS011;32098;49.448;7.904;2022-10-16T12:48:37;2.45;;;1.83;;
46391;SDS011;32098;49.448;7.904;2022-10-16T12:54:02;4.45;;;2.05;;
46391;SDS011;32098;49.448;7.904;2022-10-16T12:59:35;2.67;;;2.00;;
46391;SDS011;32098;49.448;7.904;2022-10-16T13:02:14;5.88;;;1.77;;
46391;SDS011;32098;49.448;7.904;2022-10-16T13:07:40;4.13;;;2.00;;
46391;SDS011;32098;49.448;7.904;2022-10-16T13:10:32;2.42;;;1.90;;
46391;SDS011;32098;49.448;7.904;2022-10-16T13:13:12;2.45;;;1.77;;
46391;SDS011;32098;49.448;7.904;2022-10-16T13:18:32;2.10;;;1.85;;
46391;SDS011;32098;49.448;7.904;2022-10-16T13:29:41;4.32;;;1.63;;
46391;SDS011;32098;49.448;7.904;2022-10-16T13:32:09;3.20;;;1.80;;
46391;SDS011;32098;49.448;7.904;2022-10-16T13:34:47;3.42;;;1.77;;
46391;SDS011;32098;49.448;7.904;2022-10-16T13:37:17;5.00;;;2.20;;
46391;SDS011;32098;49.448;7.904;2022-10-16T13:39:45;2.42;;;2.22;;
46391;SDS011;32098;49.448;7.904;2022-10-16T13:42:26;6.28;;;2.20;;
46391;SDS011;32098;49.448;7.904;2022-10-16T13:44:55;2.45;;;2.17;;
46391;SDS011;32098;49.448;7.904;2022-10-16T13:47:23;2.72;;;1.88;;
46391;SDS011;32098;49.448;7.904;2022-10-16T13:50:26;4.35;;;2.67;;
46391;SDS011;32098;49.448;7.904;2022-10-16T13:52:47;3.95;;;2.63;;
46391;SDS011;32098;49.448;7.904;2022-10-16T13:55:14;4.43;;;2.50;;
46391;SDS011;32098;49.448;7.904;2022-10-16T13:57:43;4.30;;;2.80;;
46391;SDS011;32098;49.448;7.904;2022-10-16T14:00:18;4.07;;;2.25;;
46391;SDS011;32098;49.448;7.904;2022-10-16T14:02:45;3.83;;;2.00;;
46391;SDS011;32098;49.448;7.904;2022-10-16T14:05:18;2.92;;;1.80;;
46391;SDS011;32098;49.448;7.904;2022-10-16T14:07:47;3.67;;;1.88;;
46391;SDS011;32098;49.448;7.904;2022-10-16T14:10:28;7.85;;;2.10;;
46391;SDS011;32098;49.448;7.904;2022-10-16T14:12:58;3.50;;;2.33;;
46391;SDS011;32098;49.448;7.904;2022-10-16T14:15:29;4.40;;;2.20;;
46391;SDS011;32098;49.448;7.904;2022-10-16T14:17:57;4.97;;;3.20;;
46391;SDS011;32098;49.448;7.904;2022-10-16T14:20:29;5.68;;;3.70;;
46391;SDS011;32098;49.448;7.904;2022-10-16T14:23:17;2.90;;;2.03;;
46391;SDS011;32098;49.448;7.904;2022-10-16T14:25:48;2.53;;;1.90;;
46391;SDS011;32098;49.448;7.904;2022-10-16T14:28:22;3.35;;;2.35;;
46391;SDS011;32098;49.448;7.904;2022-10-16T14:30:55;4.80;;;2.10;;
46391;SDS011;32098;49.448;7.904;2022-10-16T14:33:24;5.57;;;2.28;;
46391;SDS011;32098;49.448;7.904;2022-10-16T14:38:29;2.60;;;1.85;;
46391;SDS011;32098;49.448;7.904;2022-10-16T14:40:56;3.38;;;2.10;;
46391;SDS011;32098;49.448;7.904;2022-10-16T14:43:36;3.00;;;2.40;;
46391;SDS011;32098;49.448;7.904;2022-10-16T14:48:42;2.80;;;2.38;;
46391;SDS011;32098;49.448;7.904;2022-10-16T14:51:14;2.08;;;1.73;;
46391;SDS011;32098;49.448;7.904;2022-10-16T14:53:45;4.47;;;2.03;;
46391;SDS011;32098;49.448;7.904;2022-10-16T14:56:18;4.45;;;2.00;;
46391;SDS011;32098;49.448;7.904;2022-10-16T14:58:47;2.45;;;1.98;;
46391;SDS011;32098;49.448;7.904;2022-10-16T15:01:16;2.90;;;1.90;;
46391;SDS011;32098;49.448;7.904;2022-10-16T15:03:44;2.40;;;1.77;;
46391;SDS011;32098;49.448;7.904;2022-10-16T15:06:11;2.53;;;1.77;;
46391;SDS011;32098;49.448;7.904;2022-10-16T15:08:40;5.63;;;2.78;;
46391;SDS011;32098;49.448;7.904;2022-10-16T15:11:16;7.28;;;2.92;;
46391;SDS011;32098;49.448;7.904;2022-10-16T15:13:45;6.00;;;2.50;;
46391;SDS011;32098;49.448;7.904;2022-10-16T15:16:16;8.35;;;6.30;;
46391;SDS011;32098;49.448;7.904;2022-10-16T15:18:43;14.30;;;10.02;;
46391;SDS011;32098;49.448;7.904;2022-10-16T15:21:27;9.23;;;6.13;;
46391;SDS011;32098;49.448;7.904;2022-10-16T15:23:56;9.13;;;3.92;;
46391;SDS011;32098;49.448;7.904;2022-10-16T15:26:25;6.22;;;3.35;;
46391;SDS011;32098;49.448;7.904;2022-10-16T15:28:53;5.47;;;4.15;;
46391;SDS011;32098;49.448;7.904;2022-10-16T15:31:24;10.88;;;6.63;;
46391;SDS011;32098;49.448;7.904;2022-10-16T15:33:52;8.75;;;6.57;;
46391;SDS011;32098;49.448;7.904;2022-10-16T15:36:26;14.80;;;9.55;;
46391;SDS011;32098;49.448;7.904;2022-10-16T15:38:55;15.95;;;10.05;;
46391;SDS011;32098;49.448;7.904;2022-10-16T15:41:22;7.43;;;5.10;;
46391;SDS011;32098;49.448;7.904;2022-10-16T15:43:49;6.80;;;3.20;;
46391;SDS011;32098;49.448;7.904;2022-10-16T15:46:21;6.57;;;2.90;;
46391;SDS011;32098;49.448;7.904;2022-10-16T15:48:49;5.05;;;2.53;;
46391;SDS011;32098;49.448;7.904;2022-10-16T15:51:17;4.50;;;2.45;;
46391;SDS011;32098;49.448;7.904;2022-10-16T15:53:44;4.53;;;2.35;;
46391;SDS011;32098;49.448;7.904;2022-10-16T15:56:14;6.88;;;2.80;;
46391;SDS011;32098;49.448;7.904;2022-10-16T15:58:48;4.55;;;2.58;;
46391;SDS011;32098;49.448;7.904;2022-10-16T16:01:15;4.45;;;2.70;;
46391;SDS011;32098;49.448;7.904;2022-10-16T16:03:45;4.18;;;2.35;;
46391;SDS011;32098;49.448;7.904;2022-10-16T16:06:14;4.97;;;2.65;;
46391;SDS011;32098;49.448;7.904;2022-10-16T16:08:41;4.32;;;2.40;;
46391;SDS011;32098;49.448;7.904;2022-10-16T16:11:12;3.67;;;2.50;;
46391;SDS011;32098;49.448;7.904;2022-10-16T16:13:40;3.25;;;2.55;;
46391;SDS011;32098;49.448;7.904;2022-10-16T16:16:08;5.63;;;2.58;;
46391;SDS011;32098;49.448;7.904;2022-10-16T16:18:38;5.90;;;2.40;;
46391;SDS011;32098;49.448;7.904;2022-10-16T16:21:04;4.47;;;2.53;;
46391;SDS011;32098;49.448;7.904;2022-10-16T16:23:32;4.03;;;2.67;;
46391;SDS011;32098;49.448;7.904;2022-10-16T16:26:03;8.45;;;3.03;;
46391;SDS011;32098;49.448;7.904;2022-10-16T16:28:37;10.75;;;3.13;;
46391;SDS011;32098;49.448;7.904;2022-10-16T16:31:05;8.93;;;2.65;;
46391;SDS011;32098;49.448;7.904;2022-10-16T16:33:33;9.88;;;3.53;;
46391;SDS011;32098;49.448;7.904;2022-10-16T16:36:05;5.07;;;2.58;;
46391;SDS011;32098;49.448;7.904;2022-10-16T16:38:40;4.07;;;2.80;;
46391;SDS011;32098;49.448;7.904;2022-10-16T16:41:14;6.70;;;3.30;;
46391;SDS011;32098;49.448;7.904;2022-10-16T16:43:43;6.70;;;3.00;;
46391;SDS011;32098;49.448;7.904;2022-10-16T16:46:10;11.52;;;3.28;;
46391;SDS011;32098;49.448;7.904;2022-10-16T16:48:37;8.98;;;2.80;;
46391;SDS011;32098;49.448;7.904;2022-10-16T16:51:05;8.60;;;3.33;;
46391;SDS011;32098;49.448;7.904;2022-10-16T16:53:43;7.28;;;3.10;;
46391;SDS011;32098;49.448;7.904;2022-10-16T16:56:11;5.90;;;3.80;;
46391;SDS011;32098;49.448;7.904;2022-10-16T16:58:39;9.32;;;3.45;;
46391;SDS011;32098;49.448;7.904;2022-10-16T17:01:06;6.65;;;3.10;;